createdAt,value
2022-12-29T00:00:07.137Z,92.95
2022-12-29T00:02:33.700Z,92.98
2022-12-29T00:05:00.258Z,93.18
2022-12-29T00:07:26.655Z,92.74
2022-12-29T00:09:53.039Z,92.85
2022-12-29T00:12:19.559Z,92.74
2022-12-29T00:15:04.819Z,93.29
2022-12-29T00:17:31.205Z,92.24
2022-12-29T00:20:16.169Z,92.68
2022-12-29T00:23:02.905Z,93.01
2022-12-29T00:25:47.681Z,93.24
2022-12-29T00:28:32.442Z,93.13
2022-12-29T00:31:19.848Z,92.33
2022-12-29T00:34:04.970Z,92.78
2022-12-29T00:36:35.803Z,92.74
2022-12-29T00:39:26.055Z,93.15
2022-12-29T00:42:10.923Z,92.47
2022-12-29T00:44:37.271Z,92.70
2022-12-29T00:47:05.227Z,91.75
2022-12-29T00:49:32.298Z,92.34
2022-12-29T00:52:07.053Z,92.46
2022-12-29T00:54:37.477Z,92.09
2022-12-29T00:57:05.947Z,92.08
2022-12-29T00:59:32.314Z,92.41
2022-12-29T01:01:59.540Z,91.79
2022-12-29T01:04:27.083Z,91.67
2022-12-29T01:06:53.664Z,91.88
2022-12-29T01:09:39.714Z,91.92
2022-12-29T01:12:08.382Z,91.50
2022-12-29T01:14:35.288Z,91.79
2022-12-29T01:17:01.776Z,92.29
2022-12-29T01:19:28.432Z,91.72
2022-12-29T01:21:54.845Z,92.64
2022-12-29T01:24:22.012Z,91.49
2022-12-29T01:26:49.479Z,91.42
2022-12-29T01:29:16.062Z,92.36
2022-12-29T01:31:42.501Z,90.98
2022-12-29T01:34:08.949Z,91.54
2022-12-29T01:36:35.495Z,91.02
2022-12-29T01:39:01.948Z,91.87
2022-12-29T01:41:28.588Z,91.26
2022-12-29T01:43:57.649Z,90.73
2022-12-29T01:46:32.855Z,92.12
2022-12-29T01:49:08.415Z,91.45
2022-12-29T01:52:02.621Z,90.47
2022-12-29T01:54:34.328Z,90.82
2022-12-29T01:57:04.429Z,90.96
2022-12-29T01:59:35.583Z,91.24
2022-12-29T02:02:02.707Z,90.94
2022-12-29T02:04:33.003Z,90.95
2022-12-29T02:07:12.465Z,91.35
2022-12-29T02:09:39.165Z,91.61
2022-12-29T02:12:05.817Z,90.62
2022-12-29T02:14:32.536Z,90.87
2022-12-29T02:17:17.527Z,90.97
2022-12-29T02:20:12.554Z,91.03
2022-12-29T02:23:08.215Z,89.84
2022-12-29T02:26:08.934Z,90.93
2022-12-29T02:28:45.407Z,90.44
2022-12-29T02:31:41.080Z,91.15
2022-12-29T02:34:31.184Z,91.38
2022-12-29T02:37:22.207Z,90.20
2022-12-29T02:40:01.636Z,90.59
2022-12-29T02:42:49.317Z,90.34
2022-12-29T02:45:31.551Z,91.44
2022-12-29T02:48:10.970Z,91.29
2022-12-29T02:50:44.894Z,89.92
2022-12-29T02:53:17.255Z,90.26
2022-12-29T02:55:50.963Z,90.42
2022-12-29T02:58:23.720Z,90.53
2022-12-29T03:01:11.717Z,90.10
2022-12-29T03:03:53.239Z,90.45
2022-12-29T03:06:38.891Z,90.45
2022-12-29T03:09:24.205Z,91.09
2022-12-29T03:12:08.734Z,90.10
2022-12-29T03:15:02.417Z,90.56
2022-12-29T03:17:54.504Z,89.40
2022-12-29T03:20:27.438Z,89.49
2022-12-29T03:23:01.475Z,89.31
2022-12-29T03:25:34.718Z,88.86
2022-12-29T03:28:10.821Z,89.18
2022-12-29T03:30:39.558Z,89.46
2022-12-29T03:33:11.051Z,89.05
2022-12-29T03:35:41.989Z,89.71
2022-12-29T03:38:26.835Z,89.33
2022-12-29T03:40:57.489Z,88.65
2022-12-29T03:43:24.159Z,89.69
2022-12-29T03:45:50.881Z,89.25
2022-12-29T03:48:17.272Z,89.05
2022-12-29T03:50:43.660Z,88.94
2022-12-29T03:53:10.053Z,89.83
2022-12-29T03:55:36.451Z,89.34
2022-12-29T03:58:02.875Z,89.98
2022-12-29T04:00:29.407Z,88.93
2022-12-29T04:02:56.118Z,88.66
2022-12-29T04:05:22.717Z,89.35
2022-12-29T04:07:49.085Z,89.13
2022-12-29T04:10:15.544Z,89.58
2022-12-29T04:12:42.946Z,88.31
2022-12-29T04:15:10.301Z,89.29
2022-12-29T04:17:36.718Z,88.92
2022-12-29T04:20:21.881Z,89.15
2022-12-29T04:22:48.249Z,88.55
2022-12-29T04:25:14.876Z,88.51
2022-12-29T04:27:41.241Z,88.88
2022-12-29T04:30:08.365Z,88.68
2022-12-29T04:32:34.808Z,89.59
2022-12-29T04:35:01.169Z,89.49
2022-12-29T04:37:27.506Z,89.56
2022-12-29T04:39:53.851Z,89.54
2022-12-29T04:42:20.204Z,88.96
2022-12-29T04:44:46.594Z,89.41
2022-12-29T04:47:12.994Z,89.25
2022-12-29T04:49:39.411Z,88.82
2022-12-29T04:52:05.788Z,89.39
2022-12-29T04:54:32.252Z,88.82
2022-12-29T04:56:58.600Z,89.13
2022-12-29T04:59:25.011Z,89.53
2022-12-29T05:01:51.494Z,89.41
2022-12-29T05:04:18.025Z,89.16
2022-12-29T05:06:44.457Z,89.07
2022-12-29T05:09:10.813Z,89.57
2022-12-29T05:11:37.210Z,89.56
2022-12-29T05:14:03.620Z,89.32
2022-12-29T05:16:30.012Z,89.85
2022-12-29T05:18:56.422Z,89.29
2022-12-29T05:21:22.824Z,90.65
2022-12-29T05:23:49.257Z,90.77
2022-12-29T05:26:15.591Z,90.58
2022-12-29T05:28:41.948Z,91.61
2022-12-29T05:31:08.444Z,90.80
2022-12-29T05:33:34.863Z,90.80
2022-12-29T05:36:06.091Z,90.44
2022-12-29T05:38:32.559Z,90.87
2022-12-29T05:40:58.973Z,91.12
2022-12-29T05:43:25.452Z,91.38
2022-12-29T05:45:52.687Z,91.50
2022-12-29T05:48:19.082Z,91.05
2022-12-29T05:50:49.619Z,91.47
2022-12-29T05:53:16.245Z,91.68
2022-12-29T05:55:48.533Z,90.77
2022-12-29T05:58:16.579Z,90.73
2022-12-29T06:00:43.825Z,90.79
2022-12-29T06:03:10.639Z,90.21
2022-12-29T06:05:37.190Z,90.43
2022-12-29T06:08:03.731Z,90.16
2022-12-29T06:10:30.191Z,91.00
2022-12-29T06:12:56.705Z,90.39
2022-12-29T06:15:23.069Z,90.23
2022-12-29T06:17:49.571Z,89.76
2022-12-29T06:20:16.020Z,90.74
2022-12-29T06:22:42.999Z,90.44
2022-12-29T06:25:09.784Z,90.68
2022-12-29T06:27:36.140Z,90.26
2022-12-29T06:30:02.921Z,90.87
2022-12-29T06:32:29.439Z,90.06
2022-12-29T06:34:55.793Z,90.06
2022-12-29T06:37:22.152Z,90.25
2022-12-29T06:39:48.548Z,90.24
2022-12-29T06:42:15.009Z,90.46
2022-12-29T06:44:41.453Z,90.02
2022-12-29T06:47:07.855Z,90.34
2022-12-29T06:49:34.329Z,90.16
2022-12-29T06:52:01.604Z,90.06
2022-12-29T06:54:28.012Z,90.55
2022-12-29T06:56:54.360Z,90.47
2022-12-29T06:59:20.700Z,88.71
2022-12-29T07:01:47.271Z,90.33
2022-12-29T07:04:13.780Z,89.67
2022-12-29T07:06:41.626Z,89.62
2022-12-29T07:09:09.186Z,89.72
2022-12-29T07:11:36.001Z,90.10
2022-12-29T07:14:03.469Z,90.32
2022-12-29T07:16:31.058Z,89.85
2022-12-29T07:18:58.102Z,90.55
2022-12-29T07:21:24.490Z,90.43
2022-12-29T07:23:50.924Z,90.59
2022-12-29T07:26:19.956Z,89.65
2022-12-29T07:28:46.498Z,90.46
2022-12-29T07:31:17.454Z,89.98
2022-12-29T07:33:44.899Z,90.43
2022-12-29T07:36:12.805Z,89.60
2022-12-29T07:38:39.416Z,89.63
2022-12-29T07:41:06.047Z,89.47
2022-12-29T07:43:32.529Z,90.01
2022-12-29T07:45:59.002Z,88.91
2022-12-29T07:48:25.412Z,89.86
2022-12-29T07:50:53.194Z,88.73
2022-12-29T07:53:19.793Z,89.60
2022-12-29T07:55:46.334Z,88.99
2022-12-29T07:58:12.703Z,89.48
2022-12-29T08:00:39.889Z,88.58
2022-12-29T08:03:06.300Z,88.88
2022-12-29T08:05:34.466Z,89.43
2022-12-29T08:08:01.215Z,89.03
2022-12-29T08:10:27.693Z,88.34
2022-12-29T08:12:54.135Z,88.16
2022-12-29T08:15:20.576Z,89.04
2022-12-29T08:17:46.961Z,87.98
2022-12-29T08:20:13.361Z,88.92
2022-12-29T08:22:41.158Z,88.95
2022-12-29T08:25:07.919Z,88.17
2022-12-29T08:27:34.362Z,87.94
2022-12-29T08:30:02.070Z,88.17
2022-12-29T08:32:29.408Z,87.90
2022-12-29T08:34:56.001Z,89.14
2022-12-29T08:37:26.293Z,88.35
2022-12-29T08:39:58.791Z,87.99
2022-12-29T08:42:29.791Z,87.97
2022-12-29T08:44:56.227Z,87.88
2022-12-29T08:47:22.576Z,88.03
2022-12-29T08:49:48.956Z,87.96
2022-12-29T08:52:15.465Z,88.01
2022-12-29T08:54:42.001Z,87.35
2022-12-29T08:57:08.432Z,87.84
2022-12-29T08:59:34.827Z,86.51
2022-12-29T09:02:02.653Z,87.50
2022-12-29T09:04:29.459Z,87.60
2022-12-29T09:06:56.024Z,86.85
2022-12-29T09:09:22.530Z,87.52
2022-12-29T09:11:48.987Z,87.02
2022-12-29T09:14:15.577Z,87.33
2022-12-29T09:17:00.848Z,86.96
2022-12-29T09:19:27.447Z,87.23
2022-12-29T09:21:53.894Z,87.08
2022-12-29T09:24:20.336Z,86.72
2022-12-29T09:26:47.241Z,86.24
2022-12-29T09:29:13.739Z,86.52
2022-12-29T09:31:40.296Z,86.25
2022-12-29T09:34:06.767Z,86.89
2022-12-29T09:36:33.266Z,86.18
2022-12-29T09:38:59.688Z,86.02
2022-12-29T09:41:33.340Z,86.33
2022-12-29T09:44:16.790Z,86.15
2022-12-29T09:46:48.369Z,85.58
2022-12-29T09:49:30.097Z,85.72
2022-12-29T09:52:04.706Z,85.71
2022-12-29T09:54:42.921Z,85.89
2022-12-29T09:57:33.373Z,86.38
2022-12-29T10:00:14.444Z,86.90
2022-12-29T10:03:00.690Z,85.26
2022-12-29T10:05:57.168Z,85.56
2022-12-29T10:08:36.313Z,86.26
2022-12-29T10:11:17.166Z,84.78
2022-12-29T10:14:01.608Z,85.31
2022-12-29T10:16:44.810Z,85.26
2022-12-29T10:19:44.939Z,83.96
2022-12-29T10:22:52.753Z,83.75
2022-12-29T10:25:21.814Z,83.57
2022-12-29T10:27:49.797Z,83.88
2022-12-29T10:30:17.303Z,83.52
2022-12-29T10:32:52.811Z,83.62
2022-12-29T10:35:25.082Z,83.30
2022-12-29T10:38:13.215Z,83.33
2022-12-29T10:41:00.601Z,84.75
2022-12-29T10:43:30.045Z,83.83
2022-12-29T10:46:00.214Z,83.54
2022-12-29T10:48:32.284Z,84.92
2022-12-29T10:51:02.522Z,83.57
2022-12-29T10:53:39.070Z,83.10
2022-12-29T10:56:17.367Z,82.95
2022-12-29T10:58:49.742Z,83.15
2022-12-29T11:01:18.140Z,83.62
2022-12-29T11:04:42.302Z,82.70
2022-12-29T11:07:15.643Z,82.71
2022-12-29T11:09:44.693Z,82.71
2022-12-29T11:12:37.309Z,83.50
2022-12-29T11:15:07.126Z,83.19
2022-12-29T11:17:47.297Z,83.31
2022-12-29T11:20:36.450Z,83.78
2022-12-29T11:23:04.899Z,82.97
2022-12-29T11:25:33.964Z,82.57
2022-12-29T11:28:14.127Z,83.08
2022-12-29T11:30:40.760Z,83.58
2022-12-29T11:33:07.206Z,84.00
2022-12-29T11:35:45.497Z,83.67
2022-12-29T11:38:30.168Z,83.73
2022-12-29T11:40:56.536Z,82.86
2022-12-29T11:43:28.013Z,83.37
2022-12-29T11:45:54.917Z,83.24
2022-12-29T11:48:22.228Z,83.03
2022-12-29T11:50:56.288Z,82.74
2022-12-29T11:53:48.526Z,82.91
2022-12-29T11:56:40.118Z,83.05
2022-12-29T11:59:32.266Z,82.72
2022-12-29T12:02:01.572Z,82.12
2022-12-29T12:04:35.325Z,81.86
2022-12-29T12:07:28.728Z,81.71
2022-12-29T12:10:06.969Z,82.04
2022-12-29T12:12:40.442Z,81.96
2022-12-29T12:15:14.388Z,81.29
2022-12-29T12:17:52.685Z,81.09
2022-12-29T12:20:39.141Z,80.22
2022-12-29T12:23:38.584Z,79.69
2022-12-29T12:26:16.822Z,78.79
2022-12-29T12:28:55.020Z,79.52
2022-12-29T12:31:45.433Z,79.98
2022-12-29T12:34:19.047Z,79.61
2022-12-29T12:37:03.459Z,80.79
2022-12-29T12:39:48.331Z,79.70
2022-12-29T12:42:54.463Z,79.71
2022-12-29T12:45:39.061Z,79.24
2022-12-29T12:48:12.279Z,80.04
2022-12-29T12:51:02.909Z,79.45
2022-12-29T12:54:02.698Z,80.34
2022-12-29T12:56:48.381Z,80.00
2022-12-29T12:59:39.749Z,80.09
2022-12-29T13:02:12.261Z,80.08
2022-12-29T13:04:44.504Z,80.42
2022-12-29T13:07:48.680Z,80.69
2022-12-29T13:10:39.384Z,80.16
2022-12-29T13:13:30.624Z,81.21
2022-12-29T13:16:14.440Z,81.14
2022-12-29T13:18:59.089Z,80.57
2022-12-29T13:21:57.378Z,80.54
2022-12-29T13:25:14.140Z,80.38
2022-12-29T13:27:54.296Z,80.87
2022-12-29T13:30:24.103Z,79.88
2022-12-29T13:33:06.430Z,80.77
2022-12-29T13:35:51.015Z,80.73
2022-12-29T13:38:40.021Z,80.88
2022-12-29T13:41:17.293Z,80.52
2022-12-29T13:43:47.733Z,80.14
2022-12-29T13:46:20.059Z,79.87
2022-12-29T13:48:58.335Z,79.83
2022-12-29T13:51:28.222Z,80.21
2022-12-29T13:54:25.906Z,79.28
2022-12-29T13:57:02.823Z,77.12
2022-12-29T13:59:52.161Z,76.07
2022-12-29T14:02:28.065Z,75.47
2022-12-29T14:05:03.756Z,74.07
2022-12-29T14:07:30.771Z,73.20
2022-12-29T14:09:58.455Z,72.89
2022-12-29T14:12:41.763Z,72.94
2022-12-29T14:15:10.924Z,71.82
2022-12-29T14:17:39.275Z,71.16
2022-12-29T14:20:17.381Z,70.67
2022-12-29T14:23:09.110Z,71.62
2022-12-29T14:26:01.479Z,71.14
2022-12-29T14:28:30.294Z,71.44
2022-12-29T14:31:02.524Z,70.78
2022-12-29T14:33:31.861Z,70.54
2022-12-29T14:36:34.454Z,69.54
2022-12-29T14:39:00.970Z,70.09
2022-12-29T14:41:42.185Z,69.71
2022-12-29T14:44:08.486Z,69.92
2022-12-29T14:46:59.309Z,70.41
2022-12-29T14:49:30.751Z,69.87
2022-12-29T14:52:19.521Z,69.67
2022-12-29T14:54:51.989Z,70.26
2022-12-29T14:57:27.527Z,69.68
2022-12-29T14:59:58.901Z,69.99
2022-12-29T15:02:29.696Z,70.04
2022-12-29T15:05:01.194Z,69.85
2022-12-29T15:07:29.941Z,70.32
2022-12-29T15:10:04.248Z,70.95
2022-12-29T15:12:54.028Z,70.95
2022-12-29T15:15:29.322Z,71.49
2022-12-29T15:17:55.774Z,72.34
2022-12-29T15:20:32.416Z,71.56
2022-12-29T15:23:03.459Z,71.58
2022-12-29T15:25:31.946Z,70.64
2022-12-29T15:28:03.377Z,71.06
2022-12-29T15:30:29.966Z,71.32
2022-12-29T15:32:56.771Z,72.41
2022-12-29T15:35:33.484Z,71.94
2022-12-29T15:38:01.959Z,72.34
2022-12-29T15:40:33.403Z,72.70
2022-12-29T15:43:26.677Z,72.49
2022-12-29T15:45:55.409Z,73.56
2022-12-29T15:48:25.264Z,73.25
2022-12-29T15:50:52.600Z,73.05
2022-12-29T15:53:39.948Z,72.87
2022-12-29T15:56:11.398Z,72.98
2022-12-29T15:58:47.427Z,73.01
2022-12-29T16:01:35.319Z,73.65
2022-12-29T16:04:06.375Z,73.72
2022-12-29T16:06:34.141Z,73.29
2022-12-29T16:09:15.496Z,73.84
2022-12-29T16:11:46.285Z,73.81
2022-12-29T16:14:19.307Z,74.26
2022-12-29T16:16:48.749Z,74.29
2022-12-29T16:19:39.609Z,74.56
2022-12-29T16:22:21.458Z,74.46
2022-12-29T16:24:47.928Z,74.85
2022-12-29T16:27:27.785Z,74.82
2022-12-29T16:29:56.294Z,75.37
2022-12-29T16:32:31.098Z,75.63
2022-12-29T16:35:12.561Z,75.77
2022-12-29T16:37:40.197Z,75.97
2022-12-29T16:40:18.815Z,75.94
2022-12-29T16:42:51.298Z,76.31
2022-12-29T16:45:22.310Z,76.12
2022-12-29T16:48:06.939Z,76.00
2022-12-29T16:50:39.228Z,76.40
2022-12-29T16:53:08.014Z,76.22
2022-12-29T16:55:34.545Z,76.33
2022-12-29T16:58:01.313Z,75.88
2022-12-29T17:00:33.753Z,76.74
2022-12-29T17:03:01.657Z,76.94
2022-12-29T17:05:28.326Z,76.76
2022-12-29T17:07:55.865Z,76.90
2022-12-29T17:10:42.337Z,77.56
2022-12-29T17:13:09.145Z,77.40
2022-12-29T17:15:35.703Z,77.15
2022-12-29T17:18:02.273Z,77.38
2022-12-29T17:20:30.600Z,77.71
2022-12-29T17:22:59.161Z,77.98
2022-12-29T17:25:37.773Z,78.37
2022-12-29T17:28:13.853Z,78.15
2022-12-29T17:30:40.942Z,77.86
2022-12-29T17:33:13.162Z,77.75
2022-12-29T17:35:39.730Z,78.00
2022-12-29T17:38:19.441Z,78.05
2022-12-29T17:40:45.928Z,77.96
2022-12-29T17:43:14.934Z,78.18
2022-12-29T17:45:42.943Z,78.15
2022-12-29T17:48:14.016Z,77.85
2022-12-29T17:50:41.160Z,78.20
2022-12-29T17:53:13.871Z,77.68
2022-12-29T17:55:41.323Z,78.31
2022-12-29T17:58:27.985Z,77.81
2022-12-29T18:00:57.052Z,78.02
2022-12-29T18:03:38.143Z,78.40
2022-12-29T18:06:08.116Z,78.48
2022-12-29T18:08:38.970Z,78.28
2022-12-29T18:11:23.040Z,78.51
2022-12-29T18:13:49.836Z,78.49
2022-12-29T18:16:16.931Z,78.44
2022-12-29T18:18:43.875Z,78.06
2022-12-29T18:21:21.167Z,78.16
2022-12-29T18:23:47.895Z,78.19
2022-12-29T18:26:24.014Z,78.49
2022-12-29T18:28:54.735Z,78.62
2022-12-29T18:31:22.585Z,78.58
2022-12-29T18:33:51.080Z,78.27
2022-12-29T18:36:18.724Z,78.40
2022-12-29T18:38:45.442Z,78.28
2022-12-29T18:41:15.803Z,78.80
2022-12-29T18:43:42.811Z,79.17
2022-12-29T18:46:09.547Z,79.31
2022-12-29T18:48:36.130Z,79.38
2022-12-29T18:51:02.780Z,79.37
2022-12-29T18:53:29.433Z,79.70
2022-12-29T18:55:57.410Z,79.46
2022-12-29T18:58:26.784Z,79.46
2022-12-29T19:00:57.202Z,79.54
2022-12-29T19:03:23.810Z,80.39
2022-12-29T19:05:50.335Z,80.08
2022-12-29T19:08:16.811Z,79.84
2022-12-29T19:10:44.231Z,80.66
2022-12-29T19:13:17.427Z,81.14
2022-12-29T19:15:46.413Z,81.21
2022-12-29T19:21:08.090Z,82.15
2022-12-29T19:23:34.538Z,82.65
2022-12-29T19:26:03.441Z,82.14
2022-12-29T19:28:30.054Z,82.26
2022-12-29T19:31:00.240Z,82.25
2022-12-29T19:33:28.062Z,82.60
2022-12-29T19:35:59.576Z,82.29
2022-12-29T19:38:26.036Z,82.27
2022-12-29T19:40:52.552Z,82.32
2022-12-29T19:43:19.538Z,82.77
2022-12-29T19:45:46.042Z,82.78
2022-12-29T19:48:15.829Z,82.27
2022-12-29T19:50:43.352Z,82.68
2022-12-29T19:53:09.756Z,82.91
2022-12-29T19:55:36.260Z,82.77
2022-12-29T19:58:02.628Z,82.44
2022-12-29T20:00:29.054Z,82.43
2022-12-29T20:02:55.517Z,82.33
2022-12-29T20:05:22.004Z,82.37
2022-12-29T20:07:48.399Z,82.15
2022-12-29T20:10:15.145Z,82.68
2022-12-29T20:12:41.571Z,82.81
2022-12-29T20:15:09.758Z,83.10
2022-12-29T20:18:11.871Z,82.98
2022-12-29T20:20:23.226Z,83.05
2022-12-29T20:22:49.739Z,82.72
2022-12-29T20:25:44.208Z,82.43
2022-12-29T20:28:02.600Z,81.97
2022-12-29T20:30:28.928Z,81.51
2022-12-29T20:32:55.404Z,80.80
2022-12-29T20:35:21.885Z,80.44
2022-12-29T20:37:48.289Z,80.80
2022-12-29T20:40:14.719Z,81.92
2022-12-29T20:42:41.116Z,82.29
2022-12-29T20:45:07.826Z,82.56
2022-12-29T20:47:34.302Z,82.25
2022-12-29T20:50:01.069Z,82.81
2022-12-29T20:52:27.679Z,82.29
2022-12-29T20:54:54.398Z,83.33
2022-12-29T20:57:20.848Z,83.25
2022-12-29T20:59:47.364Z,84.01
2022-12-29T21:02:21.789Z,83.31
2022-12-29T21:07:35.556Z,83.47
2022-12-29T21:10:02.208Z,83.43
2022-12-29T21:12:28.713Z,83.90
2022-12-29T21:14:55.141Z,83.85
2022-12-29T21:17:21.550Z,83.20
2022-12-29T21:19:48.672Z,83.81
2022-12-29T21:22:15.211Z,84.56
2022-12-29T21:24:41.645Z,84.83
2022-12-29T21:27:08.028Z,84.43
2022-12-29T21:29:34.467Z,84.79
2022-12-29T21:32:06.355Z,84.35
2022-12-29T21:34:34.329Z,84.63
2022-12-29T21:37:00.759Z,84.72
2022-12-29T21:39:27.588Z,84.95
2022-12-29T21:41:59.842Z,84.36
2022-12-29T21:44:45.011Z,84.80
2022-12-29T21:47:11.532Z,84.12
2022-12-29T21:49:38.045Z,83.45
2022-12-29T21:52:04.634Z,83.30
2022-12-29T21:54:50.042Z,83.17
2022-12-29T21:57:37.436Z,83.61
2022-12-29T22:00:25.155Z,84.22
2022-12-29T22:03:18.342Z,83.67
2022-12-29T22:06:07.490Z,84.11
2022-12-29T22:08:52.370Z,84.04
2022-12-29T22:11:37.646Z,83.76
2022-12-29T22:14:04.251Z,84.31
2022-12-29T22:16:30.733Z,85.26
2022-12-29T22:18:57.208Z,84.57
2022-12-29T22:21:24.235Z,85.01
2022-12-29T22:23:50.621Z,85.57
2022-12-29T22:26:17.027Z,85.40
2022-12-29T22:28:46.027Z,86.55
2022-12-29T22:31:27.773Z,85.72
2022-12-29T22:33:56.109Z,86.02
2022-12-29T22:36:23.574Z,86.32
2022-12-29T22:38:50.420Z,86.34
2022-12-29T22:41:16.858Z,86.33
2022-12-29T22:43:43.357Z,86.42
2022-12-29T22:46:10.126Z,86.50
2022-12-29T22:48:36.706Z,86.76
2022-12-29T22:51:03.946Z,87.95
2022-12-29T22:53:30.546Z,87.18
2022-12-29T22:56:09.618Z,87.74
2022-12-29T22:58:40.369Z,87.68
2022-12-29T23:01:06.870Z,88.17
2022-12-29T23:03:33.413Z,88.43
2022-12-29T23:06:02.203Z,87.63
2022-12-29T23:08:31.788Z,87.80
2022-12-29T23:10:58.216Z,88.10
2022-12-29T23:13:24.715Z,88.24
2022-12-29T23:15:51.135Z,88.61
2022-12-29T23:18:17.885Z,88.61
2022-12-29T23:20:44.736Z,88.33
2022-12-29T23:23:11.442Z,88.83
2022-12-29T23:25:38.521Z,89.43
2022-12-29T23:28:07.760Z,89.47
2022-12-29T23:30:34.551Z,89.44
2022-12-29T23:33:01.019Z,89.31
2022-12-29T23:35:27.449Z,90.09
2022-12-29T23:37:53.821Z,89.58
2022-12-29T23:40:20.198Z,89.69
2022-12-29T23:42:46.568Z,90.02
2022-12-29T23:45:13.414Z,89.35
2022-12-29T23:47:39.793Z,89.82
2022-12-29T23:50:06.643Z,89.26
2022-12-29T23:52:33.010Z,89.76
2022-12-29T23:54:59.370Z,90.20
2022-12-29T23:57:25.714Z,89.48
2022-12-29T23:59:52.038Z,90.21
